Time;durP1;ratioP1;P1;durP2;ratioP2;P2;SDS_P1;SDS_P2;PMS_P1;PMS_P2;Temp;Humidity;BMP_temperature;BMP_pressure;BME280_temperature;BME280_humidity;BME280_pressure;Samples;Min_cycle;Max_cycle;Signal;HPM_P1;HPM_P2
2023/08/14 00:00:56;;;;;;;7.33;4.50;;;;;;;21.19;65.29;100309.88;4460652;32;31925;-75
2023/08/14 00:03:24;;;;;;;6.43;4.60;;;;;;;21.33;64.53;100308.22;4474209;32;33999;-74
2023/08/14 00:05:52;;;;;;;6.87;5.00;;;;;;;21.16;65.25;100310.69;4483020;32;33314;-75
2023/08/14 00:08:19;;;;;;;7.60;5.10;;;;;;;21.28;64.82;100315.19;4483295;32;34561;-74
2023/08/14 00:10:47;;;;;;;7.63;4.70;;;;;;;21.56;63.36;100315.50;4483953;31;34146;-76
2023/08/14 00:13:19;;;;;;;8.15;5.20;;;;;;;21.24;65.03;100312.53;4487868;31;33083;-75
2023/08/14 00:15:47;;;;;;;7.37;4.80;;;;;;;21.26;64.78;100316.06;4483717;32;33219;-75
2023/08/14 00:18:15;;;;;;;7.55;4.95;;;;;;;21.12;65.18;100313.31;4484100;32;33379;-75
2023/08/14 00:20:45;;;;;;;6.68;4.80;;;;;;;21.25;64.83;100320.47;4456399;32;34039;-75
2023/08/14 00:23:13;;;;;;;7.00;4.77;;;;;;;21.22;64.92;100315.16;4484402;32;33132;-75
2023/08/14 00:25:41;;;;;;;7.00;5.07;;;;;;;21.08;65.50;100314.13;4483736;32;34108;-74
2023/08/14 00:28:08;;;;;;;6.95;4.68;;;;;;;21.18;64.67;100313.34;4482778;32;34855;-74
2023/08/14 00:30:36;;;;;;;6.87;4.93;;;;;;;21.33;64.16;100308.22;4483792;32;33985;-76
2023/08/14 00:33:04;;;;;;;7.50;4.72;;;;;;;20.82;65.89;100314.72;4482572;32;34210;-74
2023/08/14 00:35:32;;;;;;;6.43;4.93;;;;;;;21.27;64.44;100304.66;4484002;32;34429;-76
2023/08/14 00:37:59;;;;;;;6.65;4.90;;;;;;;21.16;64.91;100309.81;4483563;32;34418;-74
2023/08/14 00:40:27;;;;;;;6.83;4.93;;;;;;;21.14;64.61;100311.56;4469191;32;34350;-75
2023/08/14 00:42:54;;;;;;;7.82;4.95;;;;;;;21.05;65.49;100317.59;4483163;32;33401;-74
2023/08/14 00:45:22;;;;;;;7.82;4.75;;;;;;;21.17;65.16;100314.22;4483888;32;33595;-75
2023/08/14 00:48:03;;;;;;;7.55;5.03;;;;;;;21.04;65.54;100323.75;4483873;32;33143;-76
2023/08/14 00:50:31;;;;;;;8.60;4.75;;;;;;;21.26;64.69;100316.94;4467731;32;33960;-76
2023/08/14 00:53:00;;;;;;;7.87;5.12;;;;;;;20.99;65.69;100325.44;4465486;32;33772;-74
2023/08/14 00:55:28;;;;;;;6.67;4.60;;;;;;;21.14;65.37;100328.25;4458332;32;33508;-74
2023/08/14 00:57:56;;;;;;;6.78;4.80;;;;;;;20.87;66.39;100331.47;4481160;32;33741;-75
2023/08/14 01:00:24;;;;;;;7.05;4.90;;;;;;;21.09;64.88;100335.19;4455605;32;33530;-74
2023/08/14 01:02:51;;;;;;;7.10;5.00;;;;;;;21.26;63.57;100326.59;4481367;32;34098;-75
2023/08/14 01:05:19;;;;;;;7.68;5.05;;;;;;;21.24;63.73;100329.22;4478601;32;34338;-74
2023/08/14 01:07:47;;;;;;;7.28;5.00;;;;;;;21.13;64.02;100330.84;4478056;32;33765;-76
2023/08/14 01:10:14;;;;;;;6.43;4.78;;;;;;;21.02;64.89;100323.72;4480430;32;34599;-76
2023/08/14 01:12:52;;;;;;;7.57;5.20;;;;;;;20.83;66.03;100327.03;4482534;32;32174;-75
2023/08/14 01:15:34;;;;;;;7.32;4.80;;;;;;;20.95;65.17;100332.44;4475458;32;33272;-74
2023/08/14 01:18:03;;;;;;;6.50;5.00;;;;;;;20.44;67.93;100338.81;4483809;32;33770;-75
2023/08/14 01:20:33;;;;;;;6.53;4.50;;;;;;;20.88;66.61;100330.62;4483044;32;33737;-75
2023/08/14 01:23:22;;;;;;;6.65;4.87;;;;;;;21.08;65.73;100336.09;4482974;32;33952;-75
2023/08/14 01:25:51;;;;;;;7.73;4.73;;;;;;;20.77;66.71;100333.09;4472620;32;33467;-76
2023/08/14 01:28:19;;;;;;;6.75;4.68;;;;;;;21.05;65.47;100332.53;4482875;32;33608;-75
2023/08/14 01:30:46;;;;;;;6.80;4.80;;;;;;;21.11;64.64;100327.31;4483000;32;34678;-75
2023/08/14 01:33:14;;;;;;;8.00;4.90;;;;;;;21.14;64.42;100317.69;4473637;32;33723;-75
2023/08/14 01:35:46;;;;;;;7.53;5.05;;;;;;;20.84;64.95;100327.91;4474829;32;34270;-74
2023/08/14 01:38:28;;;;;;;8.23;5.40;;;;;;;20.71;65.46;100317.25;4469162;32;34055;-76
2023/08/14 01:41:18;;;;;;;7.37;5.00;;;;;;;20.72;65.70;100319.00;4480203;32;33639;-74
2023/08/14 01:43:50;;;;;;;7.07;4.90;;;;;;;20.95;64.69;100316.62;4458644;32;33353;-75
2023/08/14 01:46:18;;;;;;;6.82;4.95;;;;;;;20.53;66.70;100317.88;4460894;32;33115;-74
2023/08/14 01:48:46;;;;;;;6.62;4.90;;;;;;;20.23;68.33;100319.22;4476462;32;33688;-75
2023/08/14 01:51:15;;;;;;;7.53;5.15;;;;;;;20.03;69.35;100320.72;4477108;32;34805;-76
2023/08/14 01:53:43;;;;;;;7.50;4.70;;;;;;;20.21;68.45;100326.22;4464593;32;33047;-75
2023/08/14 01:56:10;;;;;;;6.28;4.53;;;;;;;20.62;66.78;100323.28;4482255;32;33526;-75
2023/08/14 01:58:38;;;;;;;6.28;4.70;;;;;;;20.69;66.60;100324.25;4482490;32;33866;-74
2023/08/14 02:01:05;;;;;;;7.62;4.90;;;;;;;20.47;67.39;100333.56;4477307;32;33478;-75
2023/08/14 02:03:33;;;;;;;8.02;5.05;;;;;;;20.36;67.78;100332.56;4481725;32;33342;-74
2023/08/14 02:06:01;;;;;;;7.07;5.23;;;;;;;20.63;66.27;100329.44;4478735;32;33791;-75
2023/08/14 02:08:29;;;;;;;7.65;5.12;;;;;;;20.54;66.11;100332.78;4483070;32;33556;-74
2023/08/14 02:10:56;;;;;;;6.80;5.10;;;;;;;20.39;66.95;100329.97;4479988;32;34444;-75
2023/08/14 02:13:24;;;;;;;7.85;5.10;;;;;;;20.17;68.17;100324.41;4481298;32;31912;-76
2023/08/14 02:15:52;;;;;;;6.67;4.60;;;;;;;20.41;67.01;100329.09;4473208;32;33613;-75
2023/08/14 02:18:21;;;;;;;7.95;5.03;;;;;;;20.33;67.51;100325.50;4474131;32;34372;-74
2023/08/14 02:20:49;;;;;;;6.53;5.20;;;;;;;20.22;67.44;100328.00;4471419;32;33450;-73
2023/08/14 02:23:17;;;;;;;7.03;4.80;;;;;;;20.11;68.05;100334.84;4482653;32;33249;-74
2023/08/14 02:25:44;;;;;;;7.72;5.57;;;;;;;20.51;66.02;100335.37;4482627;32;34377;-75
2023/08/14 02:28:12;;;;;;;8.23;5.35;;;;;;;20.47;65.87;100333.56;4482890;32;33546;-74
2023/08/14 02:30:43;;;;;;;7.70;5.37;;;;;;;20.16;67.56;100327.88;4482755;32;34374;-75
2023/08/14 02:33:10;;;;;;;6.90;5.50;;;;;;;20.09;67.74;100326.06;4483008;32;32213;-75
2023/08/14 02:35:38;;;;;;;7.53;5.72;;;;;;;20.44;66.30;100328.28;4482616;32;34433;-74
2023/08/14 02:38:06;;;;;;;8.18;5.25;;;;;;;20.20;66.89;100321.84;4482708;32;33627;-75
2023/08/14 02:40:36;;;;;;;7.62;5.28;;;;;;;20.15;67.32;100326.13;4482738;32;33501;-75
2023/08/14 02:43:05;;;;;;;8.00;5.60;;;;;;;20.25;66.44;100327.16;4456790;32;32832;-75
2023/08/14 02:45:33;;;;;;;7.05;5.12;;;;;;;20.10;67.40;100322.53;4482645;32;33916;-75
2023/08/14 02:48:00;;;;;;;7.43;5.07;;;;;;;20.17;67.81;100321.78;4483220;32;34546;-74
2023/08/14 02:50:28;;;;;;;7.55;4.80;;;;;;;20.16;67.81;100327.00;4481922;32;33521;-74
2023/08/14 02:52:56;;;;;;;6.80;4.90;;;;;;;20.52;66.28;100337.16;4483104;32;34206;-75
2023/08/14 02:55:23;;;;;;;6.87;4.95;;;;;;;20.59;65.94;100328.53;4482511;32;33829;-75
2023/08/14 02:57:51;;;;;;;7.60;5.28;;;;;;;20.52;66.06;100342.41;4481077;32;33411;-74
2023/08/14 03:00:20;;;;;;;8.98;5.05;;;;;;;20.18;67.07;100341.06;4482539;32;33583;-74
2023/08/14 03:02:47;;;;;;;8.18;5.05;;;;;;;20.08;67.85;100339.19;4469695;32;33891;-75
2023/08/14 03:05:16;;;;;;;7.00;5.00;;;;;;;20.07;67.89;100342.66;4476375;32;33775;-74
2023/08/14 03:07:43;;;;;;;6.25;4.78;;;;;;;20.52;65.97;100339.78;4483051;32;34458;-75
2023/08/14 03:10:11;;;;;;;7.57;5.35;;;;;;;19.91;67.99;100346.81;4481819;32;31783;-75
2023/08/14 03:12:39;;;;;;;7.78;5.40;;;;;;;20.01;67.57;100340.81;4482497;32;33414;-74
2023/08/14 03:15:07;;;;;;;6.82;5.40;;;;;;;20.45;65.43;100340.56;4471076;32;32826;-73
2023/08/14 03:17:34;;;;;;;9.20;5.57;;;;;;;20.45;64.99;100340.56;4479832;32;33422;-75
2023/08/14 03:20:04;;;;;;;6.55;5.15;;;;;;;20.42;64.71;100340.53;4460148;32;33734;-74
2023/08/14 03:22:31;;;;;;;7.18;5.40;;;;;;;20.31;65.35;100342.13;4476183;32;33205;-74
2023/08/14 03:24:59;;;;;;;8.00;5.53;;;;;;;20.05;66.73;100347.91;4480697;32;33786;-75
2023/08/14 03:27:27;;;;;;;7.00;5.00;;;;;;;19.95;68.54;100354.78;4480753;32;33551;-74
2023/08/14 03:29:54;;;;;;;8.05;4.78;;;;;;;20.14;67.78;100355.91;4478951;32;33607;-75
2023/08/14 03:32:22;;;;;;;6.40;4.68;;;;;;;20.39;66.34;100364.16;4481719;32;32903;-75
2023/08/14 03:34:51;;;;;;;7.18;4.97;;;;;;;19.78;67.91;100359.75;4479762;32;34721;-74
2023/08/14 03:37:19;;;;;;;7.75;5.15;;;;;;;19.38;69.69;100361.66;4482493;32;33653;-76
2023/08/14 03:39:46;;;;;;;8.15;5.93;;;;;;;19.88;67.88;100362.56;4483870;32;34395;-75
2023/08/14 03:42:14;;;;;;;7.63;5.70;;;;;;;19.95;67.61;100353.88;4484372;32;34072;-74
2023/08/14 03:44:42;;;;;;;8.00;5.43;;;;;;;19.88;68.60;100362.56;4484502;32;33396;-74
2023/08/14 03:47:10;;;;;;;7.03;5.50;;;;;;;19.99;67.42;100355.69;4484107;32;33605;-75
2023/08/14 03:49:37;;;;;;;7.87;5.47;;;;;;;19.55;69.91;100364.59;4482464;32;33726;-74
2023/08/14 03:52:05;;;;;;;7.40;5.55;;;;;;;19.55;70.43;100371.63;4483910;32;33554;-75
2023/08/14 03:54:33;;;;;;;7.82;5.22;;;;;;;19.61;70.05;100372.59;4483761;32;33704;-76
2023/08/14 03:57:00;;;;;;;9.18;5.25;;;;;;;20.08;67.86;100370.75;4480418;32;34623;-75
2023/08/14 03:59:29;;;;;;;7.45;5.20;;;;;;;20.22;67.13;100369.19;4476180;32;33270;-74
2023/08/14 04:01:57;;;;;;;7.70;4.97;;;;;;;19.95;67.92;100367.03;4484002;32;33266;-74
2023/08/14 04:04:24;;;;;;;6.95;4.78;;;;;;;19.96;67.83;100376.69;4483024;32;33616;-75
2023/08/14 04:06:52;;;;;;;7.75;5.30;;;;;;;20.11;67.34;100374.31;4479906;32;33932;-74
2023/08/14 04:09:19;;;;;;;8.70;5.22;;;;;;;19.86;68.34;100385.28;4466066;32;33682;-75
2023/08/14 04:11:48;;;;;;;7.75;5.20;;;;;;;20.10;67.33;100387.41;4480342;32;33167;-75
2023/08/14 04:14:16;;;;;;;8.18;5.40;;;;;;;19.47;69.70;100381.97;4480573;32;33466;-75
2023/08/14 04:16:43;;;;;;;9.02;5.50;;;;;;;19.76;69.10;100390.41;4480061;32;33745;-74
2023/08/14 04:19:14;;;;;;;8.37;5.73;;;;;;;19.36;70.79;100394.91;4484069;32;33759;-76
2023/08/14 04:21:42;;;;;;;8.40;5.60;;;;;;;19.36;70.99;100397.53;4483550;32;33160;-75
2023/08/14 04:24:10;;;;;;;8.60;5.30;;;;;;;19.82;69.38;100398.38;4469231;32;32238;-74
2023/08/14 04:26:39;;;;;;;9.70;6.07;;;;;;;19.39;70.90;100397.59;4480229;32;33807;-75
2023/08/14 04:29:08;;;;;;;9.70;5.75;;;;;;;19.32;71.23;100398.34;4479591;32;33536;-76
2023/08/14 04:31:36;;;;;;;7.72;5.28;;;;;;;19.54;70.47;100398.72;4482509;32;33258;-74
2023/08/14 04:34:04;;;;;;;8.07;5.40;;;;;;;19.76;69.62;100395.66;4478721;32;33563;-75
2023/08/14 04:36:34;;;;;;;8.10;5.50;;;;;;;19.85;69.32;100394.91;4482848;32;33522;-74
2023/08/14 04:39:07;;;;;;;9.30;5.50;;;;;;;19.66;70.16;100393.69;4482538;32;33595;-75
2023/08/14 04:41:36;;;;;;;7.60;5.70;;;;;;;19.80;69.60;100396.59;4484026;32;34065;-76
2023/08/14 04:44:03;;;;;;;8.38;5.45;;;;;;;20.07;68.37;100390.91;4483586;32;34662;-75
2023/08/14 04:46:36;;;;;;;6.62;5.45;;;;;;;19.91;69.27;100395.00;4478916;32;34047;-74
2023/08/14 04:49:24;;;;;;;7.80;5.43;;;;;;;19.63;70.45;100393.66;4478872;32;33517;-74
2023/08/14 04:51:51;;;;;;;9.27;5.50;;;;;;;19.86;69.60;100390.53;4483457;32;33977;-74
2023/08/14 04:54:19;;;;;;;7.35;5.25;;;;;;;19.91;69.70;100392.38;4483336;32;33800;-76
2023/08/14 04:56:47;;;;;;;7.85;5.53;;;;;;;19.88;69.28;100391.47;4483052;32;34734;-74
2023/08/14 04:59:15;;;;;;;7.50;5.22;;;;;;;20.15;68.30;100399.78;4479434;32;32237;-78
2023/08/14 05:01:43;;;;;;;7.22;5.30;;;;;;;20.25;67.72;100389.41;4479866;32;33013;-75
2023/08/14 05:04:12;;;;;;;9.48;5.30;;;;;;;20.46;67.13;100400.25;4481942;32;33789;-74
2023/08/14 05:06:39;;;;;;;7.55;5.10;;;;;;;20.40;66.78;100394.91;4479348;32;33566;-75
2023/08/14 05:09:07;;;;;;;7.12;5.05;;;;;;;20.90;65.05;100401.69;4479653;32;34396;-75
2023/08/14 05:11:53;;;;;;;11.20;5.37;;;;;;;20.94;64.66;100404.41;4471984;32;32378;-74
2023/08/14 05:14:21;;;;;;;8.05;5.05;;;;;;;21.12;63.69;100398.47;4483275;32;33505;-74
2023/08/14 05:16:51;;;;;;;7.85;5.62;;;;;;;20.81;65.17;100413.03;4474801;32;33273;-74
2023/08/14 05:19:18;;;;;;;9.45;5.55;;;;;;;20.37;67.24;100410.63;4473474;32;33377;-76
2023/08/14 05:21:46;;;;;;;9.05;5.10;;;;;;;20.67;66.50;100404.03;4465057;32;34020;-75
2023/08/14 05:24:15;;;;;;;7.35;5.15;;;;;;;20.89;65.68;100414.00;4483198;32;33487;-74
2023/08/14 05:26:43;;;;;;;7.68;5.35;;;;;;;20.67;66.09;100404.94;4482515;32;33280;-76
2023/08/14 05:29:10;;;;;;;8.13;5.53;;;;;;;20.58;66.37;100410.91;4478480;32;33856;-75
2023/08/14 05:31:38;;;;;;;9.38;5.50;;;;;;;20.76;66.00;100417.34;4482585;32;33353;-74
2023/08/14 05:34:06;;;;;;;7.82;5.50;;;;;;;20.72;66.30;100407.63;4481184;32;33777;-74
2023/08/14 05:36:34;;;;;;;8.30;5.22;;;;;;;20.76;66.35;100412.06;4483492;32;33863;-75
2023/08/14 05:39:02;;;;;;;8.15;4.93;;;;;;;20.84;66.11;100407.78;4481698;32;33773;-75
2023/08/14 05:41:30;;;;;;;7.70;5.07;;;;;;;20.94;65.94;100408.81;4477311;32;33240;-75
2023/08/14 05:43:57;;;;;;;8.07;5.70;;;;;;;21.00;65.77;100415.00;4478530;32;33722;-75
2023/08/14 05:46:24;;;;;;;8.48;5.20;;;;;;;21.14;65.19;100409.03;4483095;32;35285;-75
2023/08/14 05:48:52;;;;;;;8.95;5.53;;;;;;;21.15;65.16;100421.31;4482676;32;33552;-75
2023/08/14 05:51:20;;;;;;;7.85;4.93;;;;;;;21.20;65.07;100409.09;4473369;32;32958;-75
2023/08/14 05:53:47;;;;;;;10.23;5.50;;;;;;;21.26;64.78;100409.16;4483223;32;33774;-75
2023/08/14 05:56:15;;;;;;;8.23;5.30;;;;;;;21.33;64.44;100415.38;4483021;32;33880;-75
2023/08/14 05:58:42;;;;;;;7.28;5.03;;;;;;;21.44;63.75;100410.25;4470732;32;33284;-75
2023/08/14 06:01:10;;;;;;;7.40;4.95;;;;;;;21.72;63.28;100406.13;4477677;32;31958;-75
2023/08/14 06:03:38;;;;;;;9.20;5.60;;;;;;;21.61;63.68;100411.28;4468453;32;32265;-75
2023/08/14 06:06:12;;;;;;;8.07;5.35;;;;;;;21.71;63.75;100405.25;4477827;32;34198;-75
2023/08/14 06:08:39;;;;;;;7.82;5.80;;;;;;;21.85;63.87;100412.41;4483278;32;33972;-75
2023/08/14 06:11:07;;;;;;;7.90;5.57;;;;;;;22.03;64.34;100420.47;4477329;32;33425;-75
2023/08/14 06:13:34;;;;;;;8.73;6.00;;;;;;;22.22;63.89;100423.25;4483200;32;33766;-75
2023/08/14 06:16:02;;;;;;;8.38;6.55;;;;;;;22.49;63.35;100428.72;4483058;32;33778;-75
2023/08/14 06:18:30;;;;;;;8.48;5.90;;;;;;;22.31;63.48;100429.50;4481424;32;34818;-75
2023/08/14 06:20:57;;;;;;;10.32;6.07;;;;;;;22.48;62.53;100429.59;4483122;32;33634;-75
2023/08/14 06:23:25;;;;;;;8.95;5.80;;;;;;;22.59;62.51;100427.03;4482952;32;33695;-75
2023/08/14 06:25:52;;;;;;;7.80;5.65;;;;;;;22.51;62.71;100426.97;4482784;32;32494;-75
2023/08/14 06:28:20;;;;;;;7.07;5.80;;;;;;;22.68;62.59;100432.38;4455844;32;33798;-75
2023/08/14 06:30:48;;;;;;;8.52;5.82;;;;;;;22.70;63.04;100427.09;4482988;32;33032;-75
2023/08/14 06:33:15;;;;;;;9.13;6.10;;;;;;;22.93;62.18;100425.44;4480230;32;34370;-76
2023/08/14 06:35:43;;;;;;;10.15;6.20;;;;;;;22.90;62.93;100427.19;4482926;32;33906;-75
2023/08/14 06:38:11;;;;;;;7.68;5.60;;;;;;;23.17;62.44;100429.97;4483222;32;33782;-76
2023/08/14 06:40:39;;;;;;;9.32;5.85;;;;;;;23.13;62.47;100435.25;4482800;32;33167;-75
2023/08/14 06:43:07;;;;;;;9.60;5.50;;;;;;;23.33;62.34;100425.62;4483164;32;33491;-75
2023/08/14 06:45:35;;;;;;;10.90;6.00;;;;;;;23.23;61.83;100430.88;4483271;32;33715;-75
2023/08/14 06:48:03;;;;;;;9.85;5.80;;;;;;;23.59;62.17;100431.84;4483134;32;34212;-75
2023/08/14 06:50:30;;;;;;;7.62;5.60;;;;;;;23.73;62.06;100430.97;4477538;32;33333;-75
2023/08/14 06:52:58;;;;;;;7.87;5.65;;;;;;;23.88;61.30;100426.59;4481686;32;33695;-75
2023/08/14 06:55:26;;;;;;;11.40;5.93;;;;;;;23.93;61.43;100428.38;4477346;32;33874;-75
2023/08/14 06:57:53;;;;;;;7.78;5.43;;;;;;;24.18;60.24;100440.69;4476665;32;34401;-75
2023/08/14 07:00:21;;;;;;;8.13;5.50;;;;;;;24.18;61.66;100433.63;4478683;32;33860;-76
2023/08/14 07:02:49;;;;;;;7.80;5.43;;;;;;;24.60;59.62;100437.13;4476345;32;33405;-75
2023/08/14 07:05:17;;;;;;;8.73;5.37;;;;;;;24.64;59.92;100438.00;4482837;32;33648;-76
2023/08/14 07:07:45;;;;;;;8.02;5.30;;;;;;;24.77;60.25;100438.88;4462967;32;34738;-77
2023/08/14 07:10:12;;;;;;;9.18;5.43;;;;;;;25.06;59.59;100436.97;4482024;31;33057;-76
2023/08/14 07:12:40;;;;;;;7.20;5.00;;;;;;;25.33;58.57;100428.94;4472885;32;33884;-77
2023/08/14 07:15:10;;;;;;;8.43;5.20;;;;;;;25.37;58.24;100434.22;4482783;32;33542;-76
2023/08/14 07:17:39;;;;;;;8.27;4.47;;;;;;;25.46;55.95;100430.63;4462993;32;33403;-76
2023/08/14 07:20:08;;;;;;;7.53;4.40;;;;;;;25.88;54.07;100428.53;4479044;32;33242;-75
2023/08/14 07:22:38;;;;;;;7.47;4.20;;;;;;;25.99;52.12;100431.16;4460898;32;31917;-77
2023/08/14 07:25:06;;;;;;;7.15;4.15;;;;;;;26.29;51.78;100430.00;4477107;32;33683;-76
2023/08/14 07:27:33;;;;;;;7.47;3.87;;;;;;;26.52;50.97;100432.44;4472790;32;34330;-76
2023/08/14 07:30:02;;;;;;;6.78;3.65;;;;;;;26.56;50.37;100430.59;4467094;32;33178;-76
2023/08/14 07:32:29;;;;;;;6.00;3.72;;;;;;;26.78;49.22;100434.81;4472468;32;33213;-76
2023/08/14 07:34:57;;;;;;;6.53;3.50;;;;;;;26.94;47.86;100434.63;4459997;32;33768;-76
2023/08/14 07:37:24;;;;;;;8.00;3.83;;;;;;;27.46;43.69;100428.62;4473623;32;33757;-76
2023/08/14 07:39:53;;;;;;;6.82;3.85;;;;;;;27.56;43.64;100430.25;4460308;32;31778;-76
2023/08/14 07:42:21;;;;;;;6.53;3.62;;;;;;;27.79;43.55;100426.34;4477542;32;33588;-75
2023/08/14 07:44:49;;;;;;;6.07;3.40;;;;;;;28.17;43.93;100427.53;4474294;32;34683;-75
2023/08/14 07:47:16;;;;;;;7.50;3.70;;;;;;;28.43;43.57;100425.28;4482252;32;34177;-75
2023/08/14 07:49:44;;;;;;;5.95;3.60;;;;;;;28.71;42.23;100422.09;4480122;32;32810;-76
2023/08/14 07:52:11;;;;;;;5.85;3.58;;;;;;;28.98;41.85;100433.97;4470064;32;33870;-77
2023/08/14 07:54:39;;;;;;;6.53;3.30;;;;;;;29.30;41.93;100423.53;4474542;32;32853;-77
2023/08/14 07:57:06;;;;;;;6.62;3.55;;;;;;;29.46;40.87;100419.63;4481860;32;34441;-76
2023/08/14 07:59:34;;;;;;;7.97;3.55;;;;;;;29.73;40.18;100406.56;4481642;32;33557;-76
2023/08/14 08:02:02;;;;;;;5.53;3.25;;;;;;;29.76;39.83;100417.16;4481921;32;33715;-77
2023/08/14 08:04:36;;;;;;;6.03;3.10;;;;;;;30.04;39.89;100421.78;4481620;32;34397;-77
2023/08/14 08:07:07;;;;;;;6.18;3.35;;;;;;;30.25;38.47;100423.94;4471398;32;33008;-76
2023/08/14 08:09:34;;;;;;;6.18;3.40;;;;;;;30.46;38.07;100433.22;4482135;32;33334;-77
2023/08/14 08:12:02;;;;;;;6.80;3.20;;;;;;;30.88;36.98;100426.66;4480771;32;33930;-76
2023/08/14 08:14:29;;;;;;;6.15;3.20;;;;;;;30.96;36.57;100422.00;4465662;32;33637;-77
2023/08/14 08:16:57;;;;;;;5.93;3.15;;;;;;;31.20;36.76;100419.53;4479075;32;33563;-76
2023/08/14 08:19:25;;;;;;;6.68;3.00;;;;;;;31.25;36.88;100423.78;4482069;32;33586;-76
2023/08/14 08:21:52;;;;;;;6.20;3.17;;;;;;;31.57;35.90;100421.06;4482621;32;33595;-77
2023/08/14 08:24:20;;;;;;;5.40;3.10;;;;;;;31.86;35.18;100418.31;4479092;32;33552;-77
2023/08/14 08:26:48;;;;;;;5.18;3.00;;;;;;;32.01;34.66;100416.94;4459834;32;33620;-77
2023/08/14 08:29:16;;;;;;;6.57;3.33;;;;;;;32.24;33.96;100418.84;4462906;32;33073;-77
2023/08/14 08:31:44;;;;;;;5.15;3.10;;;;;;;32.27;34.82;100418.72;4477043;32;35239;-77
2023/08/14 08:34:11;;;;;;;6.73;2.80;;;;;;;32.29;34.91;100421.34;4472340;32;34665;-76
2023/08/14 08:36:39;;;;;;;5.20;3.00;;;;;;;32.58;34.46;100425.69;4483197;32;34114;-78
2023/08/14 08:39:07;;;;;;;6.05;2.78;;;;;;;32.83;33.52;100427.47;4477974;32;33009;-78
2023/08/14 08:41:38;;;;;;;6.07;2.90;;;;;;;33.09;32.80;100427.34;4481678;32;33528;-77
2023/08/14 08:44:07;;;;;;;5.72;2.80;;;;;;;33.28;32.96;100423.97;4478222;32;33565;-77
2023/08/14 08:46:37;;;;;;;5.20;2.85;;;;;;;33.20;32.52;100426.94;4458635;32;33797;-79
2023/08/14 08:49:05;;;;;;;5.20;3.00;;;;;;;33.52;32.64;100423.94;4471025;32;34127;-79
2023/08/14 08:51:37;;;;;;;8.03;3.10;;;;;;;33.73;31.71;100428.47;4466443;32;33909;-78
2023/08/14 08:54:06;;;;;;;5.80;3.10;;;;;;;33.52;31.02;100426.63;4476347;32;34089;-79
2023/08/14 08:56:34;;;;;;;5.95;3.10;;;;;;;33.89;31.61;100426.00;4479417;32;33158;-77
2023/08/14 08:59:02;;;;;;;5.25;3.05;;;;;;;33.97;31.22;100428.38;4476589;32;32826;-79
2023/08/14 09:01:30;;;;;;;5.50;2.65;;;;;;;34.31;30.73;100422.44;4465056;32;33254;-79
2023/08/14 09:03:58;;;;;;;7.12;2.85;;;;;;;34.53;29.53;100416.97;4461451;32;33348;-78
2023/08/14 09:06:26;;;;;;;5.43;2.58;;;;;;;34.72;29.40;100416.19;4455183;32;34106;-80
2023/08/14 09:08:54;;;;;;;5.20;2.58;;;;;;;34.65;29.13;100415.53;4482424;32;32679;-77
2023/08/14 09:11:21;;;;;;;5.68;2.80;;;;;;;35.01;27.50;100415.69;4460091;32;34594;-79
2023/08/14 09:13:49;;;;;;;5.57;2.95;;;;;;;35.17;28.48;100412.31;4465006;32;34399;-78
2023/08/14 09:16:17;;;;;;;5.68;2.53;;;;;;;35.32;28.73;100406.19;4472716;32;33841;-78
2023/08/14 09:18:45;;;;;;;7.22;2.80;;;;;;;35.50;27.60;100403.53;4481523;32;32964;-78
2023/08/14 09:21:13;;;;;;;5.12;2.80;;;;;;;35.59;28.24;100398.56;4479442;32;33274;-79
2023/08/14 09:23:42;;;;;;;5.32;2.37;;;;;;;35.78;27.60;100400.38;4466603;32;34353;-80
2023/08/14 09:26:10;;;;;;;5.30;2.60;;;;;;;35.93;26.99;100398.69;4480170;32;34434;-78
2023/08/14 09:28:39;;;;;;;5.93;2.63;;;;;;;35.74;26.72;100396.09;4482208;32;33228;-79
2023/08/14 09:31:08;;;;;;;4.93;2.40;;;;;;;35.89;27.25;100400.72;4482973;32;34382;-80
2023/08/14 09:33:40;;;;;;;7.12;2.78;;;;;;;36.14;26.51;100400.31;4476243;32;33473;-79
2023/08/14 09:36:08;;;;;;;4.75;2.50;;;;;;;36.17;26.05;100400.16;4480847;32;34216;-78
2023/08/14 09:38:36;;;;;;;6.25;2.65;;;;;;;36.31;25.64;100395.88;4480473;32;34069;-77
2023/08/14 09:41:04;;;;;;;7.25;2.30;;;;;;;36.43;25.94;100389.81;4480053;32;33617;-79
2023/08/14 09:43:33;;;;;;;5.93;2.20;;;;;;;36.71;25.56;100393.75;4479009;32;32262;-79
2023/08/14 09:46:03;;;;;;;4.10;2.12;;;;;;;36.82;24.62;100396.75;4473327;32;32067;-78
2023/08/14 09:48:42;;;;;;;6.03;2.60;;;;;;;36.75;25.91;100389.94;4478152;32;33091;-79
2023/08/14 09:51:11;;;;;;;5.37;2.17;;;;;;;36.57;23.70;100392.66;4474964;32;32971;-77
2023/08/14 09:53:50;;;;;;;6.80;2.22;;;;;;;36.86;24.25;100387.50;4470215;32;33659;-77
2023/08/14 09:56:18;;;;;;;4.80;2.08;;;;;;;36.75;23.46;100389.94;4472466;32;32512;-78
2023/08/14 09:58:47;;;;;;;5.32;2.40;;;;;;;37.03;23.44;100382.97;4458247;32;33677;-77
2023/08/14 10:01:18;;;;;;;4.47;2.20;;;;;;;36.90;23.89;100389.09;4471253;32;34337;-77
2023/08/14 10:03:49;;;;;;;4.50;2.37;;;;;;;36.92;24.99;100389.87;4472883;32;33284;-77
2023/08/14 10:06:17;;;;;;;4.85;2.30;;;;;;;37.17;23.74;100384.00;4460931;32;32909;-76
2023/08/14 10:08:47;;;;;;;4.20;2.27;;;;;;;36.98;24.70;100376.03;4475146;32;33054;-78
2023/08/14 10:11:16;;;;;;;3.87;2.08;;;;;;;36.96;23.98;100380.63;4452050;32;33684;-77
2023/08/14 10:13:51;;;;;;;5.30;2.05;;;;;;;37.12;24.16;100377.06;4477587;32;34388;-78
2023/08/14 10:16:24;;;;;;;4.55;2.25;;;;;;;37.12;23.74;100372.53;4474153;32;33332;-77
2023/08/14 10:18:55;;;;;;;6.23;2.23;;;;;;;37.18;23.52;100376.75;4460383;32;32780;-80
2023/08/14 10:21:28;;;;;;;6.80;1.98;;;;;;;37.12;23.85;100366.25;4457311;32;33658;-77
2023/08/14 10:23:56;;;;;;;4.72;2.10;;;;;;;37.42;23.26;100370.88;4458579;32;33231;-78
2023/08/14 10:26:25;;;;;;;3.87;1.90;;;;;;;37.37;22.44;100377.44;4475483;32;33991;-78
2023/08/14 10:28:57;;;;;;;4.20;1.90;;;;;;;37.70;22.06;100372.87;4459775;32;33390;-76
2023/08/14 10:31:29;;;;;;;6.07;2.20;;;;;;;37.59;21.64;100362.66;4477688;31;32790;-77
2023/08/14 10:33:59;;;;;;;4.40;1.90;;;;;;;37.48;22.89;100370.56;4459343;32;33037;-76
2023/08/14 10:36:28;;;;;;;3.45;1.90;;;;;;;37.54;22.26;100362.94;4474718;32;32381;-77
2023/08/14 10:39:06;;;;;;;5.50;1.90;;;;;;;37.54;20.91;100356.66;4457443;32;32101;-76
2023/08/14 10:41:34;;;;;;;4.70;1.77;;;;;;;37.47;21.91;100357.97;4476144;32;32829;-77
2023/08/14 10:44:09;;;;;;;5.12;2.22;;;;;;;37.70;21.87;100357.53;4477011;32;33297;-78
2023/08/14 10:46:40;;;;;;;4.60;2.03;;;;;;;37.65;21.84;100351.53;4474790;32;32941;-76
2023/08/14 10:49:11;;;;;;;5.95;2.10;;;;;;;37.61;22.87;100352.69;4471059;32;33739;-77
2023/08/14 10:51:42;;;;;;;5.18;2.12;;;;;;;37.75;22.74;100343.75;4470549;31;33059;-78
2023/08/14 10:54:12;;;;;;;5.87;2.40;;;;;;;37.59;23.62;100343.72;4475120;32;32734;-77
2023/08/14 10:56:49;;;;;;;3.95;2.15;;;;;;;37.88;21.76;100349.25;4481507;32;32679;-78
2023/08/14 10:59:28;;;;;;;4.75;2.50;;;;;;;37.33;20.37;100335.34;4464354;32;32607;-77
2023/08/14 11:02:12;;;;;;;4.93;2.50;;;;;;;37.50;23.18;100341.59;4463713;32;33430;-77
2023/08/14 11:04:57;;;;;;;6.32;2.47;;;;;;;37.56;21.77;100334.00;4479565;32;33000;-77
2023/08/14 11:07:30;;;;;;;4.57;2.40;;;;;;;37.28;22.65;100329.34;4464209;32;32774;-77
2023/08/14 11:09:58;;;;;;;4.95;2.20;;;;;;;37.24;22.74;100327.75;4477408;32;33475;-78
2023/08/14 11:12:32;;;;;;;4.53;2.10;;;;;;;37.15;23.33;100326.47;4487582;31;33171;-77
2023/08/14 11:14:59;;;;;;;6.32;2.20;;;;;;;37.39;22.64;100321.47;4475812;32;34359;-78
2023/08/14 11:17:28;;;;;;;4.85;2.00;;;;;;;37.26;22.63;100323.12;4477060;32;32748;-78
2023/08/14 11:19:56;;;;;;;6.45;2.10;;;;;;;37.32;20.24;100314.72;4468550;32;31914;-77
2023/08/14 11:22:24;;;;;;;5.37;2.10;;;;;;;37.35;22.46;100319.91;4474189;32;33266;-77
2023/08/14 11:24:51;;;;;;;4.45;2.05;;;;;;;37.30;22.47;100316.62;4464385;32;32739;-78
2023/08/14 11:27:19;;;;;;;5.62;2.10;;;;;;;37.73;23.24;100324.91;4476912;32;34434;-77
2023/08/14 11:29:49;;;;;;;4.12;2.20;;;;;;;37.57;21.62;100319.53;4475097;32;33284;-77
2023/08/14 11:32:22;;;;;;;4.73;2.13;;;;;;;37.66;23.47;100323.53;4471802;32;33392;-78